Rover, Arkansas
Current Conditions -  °F | °C
As of 10:53 PM on Sunday 21 Dec 2014 (Local Time) from KRUE Reporting Station
Overcast Overcast  
Wind Chill: 46°   Ceiling: 4100
Heat Index: 49°   Visibility: 10mi
Dew Point: 38°   Wind: 7mph
Humidity: 66%   Direction: 100°E
Pressure: 29.84"   Gusts: NA
Location:  34.95°N, 93.41°W
Report Text: KRUE 220453Z AUTO 10006KT 10SM OVC041 09/03 A2984 RMK AO2 SLP101 T00940033
Loading
Personal Weather Stations






























Interactive Weather Map New forecast layout! Learn more

10-Day Weather Forecast

Advertisements
Track Severe Weather on mobile